sensor_id;sensor_type;location;lat;lon;timestamp;P1;durP1;ratioP1;P2;durP2;ratioP2
20002;SDS011;10162;41.600;23.806;2023-07-13T00:02:07;13.73;;;10.60;;
20002;SDS011;10162;41.600;23.806;2023-07-13T00:08:29;12.70;;;10.77;;
20002;SDS011;10162;41.600;23.806;2023-07-13T00:10:58;11.33;;;10.03;;
20002;SDS011;10162;41.600;23.806;2023-07-13T00:17:18;13.87;;;10.77;;
20002;SDS011;10162;41.600;23.806;2023-07-13T00:19:44;15.30;;;10.53;;
20002;SDS011;10162;41.600;23.806;2023-07-13T00:22:10;12.57;;;10.43;;
20002;SDS011;10162;41.600;23.806;2023-07-13T00:28:33;13.50;;;10.00;;
20002;SDS011;10162;41.600;23.806;2023-07-13T00:31:00;11.80;;;10.27;;
20002;SDS011;10162;41.600;23.806;2023-07-13T00:37:20;11.17;;;9.93;;
20002;SDS011;10162;41.600;23.806;2023-07-13T00:39:47;12.73;;;10.27;;
20002;SDS011;10162;41.600;23.806;2023-07-13T00:42:13;13.77;;;10.80;;
20002;SDS011;10162;41.600;23.806;2023-07-13T00:48:17;12.00;;;10.30;;
20002;SDS011;10162;41.600;23.806;2023-07-13T00:50:48;12.07;;;9.90;;
20002;SDS011;10162;41.600;23.806;2023-07-13T00:57:12;12.07;;;10.20;;
20002;SDS011;10162;41.600;23.806;2023-07-13T00:59:43;12.37;;;11.07;;
20002;SDS011;10162;41.600;23.806;2023-07-13T01:02:12;12.70;;;10.93;;
20002;SDS011;10162;41.600;23.806;2023-07-13T01:07:34;13.17;;;11.87;;
20002;SDS011;10162;41.600;23.806;2023-07-13T01:09:59;15.40;;;11.63;;
20002;SDS011;10162;41.600;23.806;2023-07-13T01:12:25;17.50;;;11.10;;
20002;SDS011;10162;41.600;23.806;2023-07-13T01:18:44;16.20;;;12.10;;
20002;SDS011;10162;41.600;23.806;2023-07-13T01:21:12;16.60;;;11.57;;
20002;SDS011;10162;41.600;23.806;2023-07-13T01:27:33;13.47;;;11.30;;
20002;SDS011;10162;41.600;23.806;2023-07-13T01:30:00;12.80;;;11.20;;
20002;SDS011;10162;41.600;23.806;2023-07-13T01:32:29;13.07;;;11.23;;
20002;SDS011;10162;41.600;23.806;2023-07-13T01:38:50;15.10;;;11.50;;
20002;SDS011;10162;41.600;23.806;2023-07-13T01:41:17;14.90;;;11.57;;
20002;SDS011;10162;41.600;23.806;2023-07-13T01:47:38;15.60;;;11.73;;
20002;SDS011;10162;41.600;23.806;2023-07-13T01:50:05;12.03;;;10.83;;
20002;SDS011;10162;41.600;23.806;2023-07-13T01:52:31;13.20;;;11.73;;
20002;SDS011;10162;41.600;23.806;2023-07-13T01:57:58;13.20;;;11.60;;
20002;SDS011;10162;41.600;23.806;2023-07-13T02:00:23;13.10;;;11.30;;
20002;SDS011;10162;41.600;23.806;2023-07-13T02:05:47;13.23;;;11.63;;
20002;SDS011;10162;41.600;23.806;2023-07-13T02:08:13;13.13;;;11.73;;
20002;SDS011;10162;41.600;23.806;2023-07-13T02:10:39;12.90;;;11.60;;
20002;SDS011;10162;41.600;23.806;2023-07-13T02:16:58;13.37;;;11.27;;
20002;SDS011;10162;41.600;23.806;2023-07-13T02:19:25;13.57;;;11.30;;
20002;SDS011;10162;41.600;23.806;2023-07-13T02:21:51;12.73;;;10.87;;
20002;SDS011;10162;41.600;23.806;2023-07-13T02:27:20;11.33;;;10.10;;
20002;SDS011;10162;41.600;23.806;2023-07-13T02:29:51;12.77;;;10.10;;
20002;SDS011;10162;41.600;23.806;2023-07-13T02:32:19;11.40;;;10.20;;
20002;SDS011;10162;41.600;23.806;2023-07-13T02:37:53;11.80;;;10.57;;
20002;SDS011;10162;41.600;23.806;2023-07-13T02:40:18;11.93;;;10.27;;
20002;SDS011;10162;41.600;23.806;2023-07-13T02:42:44;11.30;;;10.17;;
20002;SDS011;10162;41.600;23.806;2023-07-13T02:45:10;15.10;;;10.87;;
20002;SDS011;10162;41.600;23.806;2023-07-13T02:47:38;14.00;;;11.63;;
20002;SDS011;10162;41.600;23.806;2023-07-13T02:50:05;14.77;;;11.37;;
20002;SDS011;10162;41.600;23.806;2023-07-13T02:52:33;13.50;;;10.77;;
20002;SDS011;10162;41.600;23.806;2023-07-13T02:58:52;11.23;;;10.03;;
20002;SDS011;10162;41.600;23.806;2023-07-13T03:01:21;13.73;;;10.30;;
20002;SDS011;10162;41.600;23.806;2023-07-13T03:06:30;11.47;;;10.13;;
20002;SDS011;10162;41.600;23.806;2023-07-13T03:08:56;14.07;;;9.90;;
20002;SDS011;10162;41.600;23.806;2023-07-13T03:11:23;12.23;;;10.40;;
20002;SDS011;10162;41.600;23.806;2023-07-13T03:17:49;10.90;;;9.50;;
20002;SDS011;10162;41.600;23.806;2023-07-13T03:20:16;11.23;;;10.00;;
20002;SDS011;10162;41.600;23.806;2023-07-13T03:26:36;12.63;;;10.20;;
20002;SDS011;10162;41.600;23.806;2023-07-13T03:29:03;15.30;;;10.20;;
20002;SDS011;10162;41.600;23.806;2023-07-13T03:31:30;15.47;;;10.63;;
20002;SDS011;10162;41.600;23.806;2023-07-13T03:37:53;11.17;;;9.90;;
20002;SDS011;10162;41.600;23.806;2023-07-13T03:40:20;14.37;;;11.63;;
20002;SDS011;10162;41.600;23.806;2023-07-13T03:45:37;13.23;;;11.00;;
20002;SDS011;10162;41.600;23.806;2023-07-13T03:48:03;13.47;;;12.07;;
20002;SDS011;10162;41.600;23.806;2023-07-13T03:50:31;17.33;;;14.30;;
20002;SDS011;10162;41.600;23.806;2023-07-13T03:56:05;16.00;;;12.83;;
20002;SDS011;10162;41.600;23.806;2023-07-13T03:58:32;13.03;;;11.63;;
20002;SDS011;10162;41.600;23.806;2023-07-13T04:01:09;17.47;;;13.40;;
20002;SDS011;10162;41.600;23.806;2023-07-13T04:06:31;19.30;;;13.90;;
20002;SDS011;10162;41.600;23.806;2023-07-13T04:08:59;20.03;;;14.67;;
20002;SDS011;10162;41.600;23.806;2023-07-13T04:11:27;23.20;;;16.80;;
20002;SDS011;10162;41.600;23.806;2023-07-13T04:16:56;22.80;;;17.23;;
20002;SDS011;10162;41.600;23.806;2023-07-13T04:19:22;19.57;;;15.90;;
20002;SDS011;10162;41.600;23.806;2023-07-13T04:21:48;16.47;;;13.03;;
20002;SDS011;10162;41.600;23.806;2023-07-13T04:27:24;15.70;;;13.20;;
20002;SDS011;10162;41.600;23.806;2023-07-13T04:29:50;15.27;;;13.20;;
20002;SDS011;10162;41.600;23.806;2023-07-13T04:32:17;15.23;;;13.63;;
20002;SDS011;10162;41.600;23.806;2023-07-13T04:37:46;15.43;;;13.33;;
20002;SDS011;10162;41.600;23.806;2023-07-13T04:40:13;16.07;;;12.87;;
20002;SDS011;10162;41.600;23.806;2023-07-13T04:42:40;18.57;;;14.07;;
20002;SDS011;10162;41.600;23.806;2023-07-13T04:45:06;14.43;;;12.97;;
20002;SDS011;10162;41.600;23.806;2023-07-13T04:47:32;16.27;;;13.70;;
20002;SDS011;10162;41.600;23.806;2023-07-13T04:49:58;16.13;;;14.52;;
20002;SDS011;10162;41.600;23.806;2023-07-13T04:52:25;18.08;;;14.45;;
20002;SDS011;10162;41.600;23.806;2023-07-13T04:57:26;15.40;;;13.80;;
20002;SDS011;10162;41.600;23.806;2023-07-13T04:59:53;16.58;;;13.45;;
20002;SDS011;10162;41.600;23.806;2023-07-13T05:02:22;16.90;;;13.75;;
20002;SDS011;10162;41.600;23.806;2023-07-13T05:08:42;18.40;;;12.75;;
20002;SDS011;10162;41.600;23.806;2023-07-13T05:11:09;13.88;;;12.20;;
20002;SDS011;10162;41.600;23.806;2023-07-13T05:17:28;15.25;;;13.30;;
20002;SDS011;10162;41.600;23.806;2023-07-13T05:19:56;18.63;;;12.60;;
20002;SDS011;10162;41.600;23.806;2023-07-13T05:22:21;14.80;;;12.98;;
20002;SDS011;10162;41.600;23.806;2023-07-13T05:27:48;18.00;;;13.60;;
20002;SDS011;10162;41.600;23.806;2023-07-13T05:30:14;19.23;;;15.43;;
20002;SDS011;10162;41.600;23.806;2023-07-13T05:35:46;18.85;;;14.32;;
20002;SDS011;10162;41.600;23.806;2023-07-13T05:38:12;16.27;;;14.50;;
20002;SDS011;10162;41.600;23.806;2023-07-13T05:40:39;20.00;;;14.63;;
20002;SDS011;10162;41.600;23.806;2023-07-13T05:45:36;17.55;;;15.35;;
20002;SDS011;10162;41.600;23.806;2023-07-13T05:48:02;16.65;;;14.07;;
20002;SDS011;10162;41.600;23.806;2023-07-13T05:50:27;17.50;;;14.82;;
20002;SDS011;10162;41.600;23.806;2023-07-13T05:56:47;19.15;;;14.68;;
20002;SDS011;10162;41.600;23.806;2023-07-13T05:59:14;17.30;;;13.20;;
20002;SDS011;10162;41.600;23.806;2023-07-13T06:01:40;16.75;;;13.25;;
20002;SDS011;10162;41.600;23.806;2023-07-13T06:08:00;17.92;;;14.20;;
20002;SDS011;10162;41.600;23.806;2023-07-13T06:10:26;19.75;;;13.10;;
20002;SDS011;10162;41.600;23.806;2023-07-13T06:31:08;17.95;;;15.73;;
20002;SDS011;10162;41.600;23.806;2023-07-13T06:37:29;57.67;;;40.60;;
20002;SDS011;10162;41.600;23.806;2023-07-13T06:39:58;106.43;;;69.07;;
20002;SDS011;10162;41.600;23.806;2023-07-13T06:42:26;56.58;;;40.65;;
20002;SDS011;10162;41.600;23.806;2023-07-13T06:44:52;43.50;;;31.30;;
20002;SDS011;10162;41.600;23.806;2023-07-13T06:47:20;24.98;;;19.17;;
20002;SDS011;10162;41.600;23.806;2023-07-13T06:49:47;19.90;;;15.65;;
20002;SDS011;10162;41.600;23.806;2023-07-13T06:52:15;17.33;;;13.98;;
20002;SDS011;10162;41.600;23.806;2023-07-13T06:54:41;13.85;;;12.55;;
20002;SDS011;10162;41.600;23.806;2023-07-13T06:57:06;14.13;;;12.20;;
20002;SDS011;10162;41.600;23.806;2023-07-13T06:59:33;12.23;;;11.02;;
20002;SDS011;10162;41.600;23.806;2023-07-13T07:04:30;16.90;;;13.13;;
20002;SDS011;10162;41.600;23.806;2023-07-13T07:06:56;15.02;;;12.98;;
20002;SDS011;10162;41.600;23.806;2023-07-13T07:09:21;15.00;;;13.45;;
20002;SDS011;10162;41.600;23.806;2023-07-13T07:18:32;20.90;;;13.57;;
20002;SDS011;10162;41.600;23.806;2023-07-13T07:20:57;16.23;;;13.88;;
20002;SDS011;10162;41.600;23.806;2023-07-13T07:23:25;14.27;;;12.80;;
20002;SDS011;10162;41.600;23.806;2023-07-13T07:25:51;14.07;;;12.20;;
20002;SDS011;10162;41.600;23.806;2023-07-13T07:28:21;12.88;;;11.48;;
20002;SDS011;10162;41.600;23.806;2023-07-13T07:30:47;14.20;;;11.60;;
20002;SDS011;10162;41.600;23.806;2023-07-13T07:33:14;13.38;;;12.00;;
20002;SDS011;10162;41.600;23.806;2023-07-13T07:35:42;13.75;;;12.35;;
20002;SDS011;10162;41.600;23.806;2023-07-13T07:40:43;13.73;;;11.65;;
20002;SDS011;10162;41.600;23.806;2023-07-13T07:46:44;12.45;;;11.25;;
20002;SDS011;10162;41.600;23.806;2023-07-13T07:49:10;12.27;;;10.90;;
20002;SDS011;10162;41.600;23.806;2023-07-13T11:14:01;7.85;;;7.03;;
20002;SDS011;10162;41.600;23.806;2023-07-13T11:20:30;7.85;;;7.13;;
20002;SDS011;10162;41.600;23.806;2023-07-13T11:26:56;8.10;;;7.03;;
20002;SDS011;10162;41.600;23.806;2023-07-13T11:35:02;7.95;;;7.25;;
20002;SDS011;10162;41.600;23.806;2023-07-13T11:37:28;9.50;;;7.13;;
20002;SDS011;10162;41.600;23.806;2023-07-13T11:39:56;7.82;;;6.95;;
20002;SDS011;10162;41.600;23.806;2023-07-13T11:45:31;7.18;;;6.47;;
20002;SDS011;10162;41.600;23.806;2023-07-13T11:47:57;7.90;;;7.13;;
20002;SDS011;10162;41.600;23.806;2023-07-13T11:50:29;7.32;;;6.63;;
20002;SDS011;10162;41.600;23.806;2023-07-13T11:53:01;7.13;;;6.15;;
20002;SDS011;10162;41.600;23.806;2023-07-13T11:55:29;8.15;;;6.43;;
20002;SDS011;10162;41.600;23.806;2023-07-13T11:57:58;7.05;;;6.35;;
20002;SDS011;10162;41.600;23.806;2023-07-13T12:00:26;7.40;;;6.20;;
20002;SDS011;10162;41.600;23.806;2023-07-13T12:06:05;6.85;;;6.18;;
20002;SDS011;10162;41.600;23.806;2023-07-13T12:08:45;8.93;;;6.97;;
20002;SDS011;10162;41.600;23.806;2023-07-13T12:11:14;6.97;;;6.38;;
20002;SDS011;10162;41.600;23.806;2023-07-13T12:25:13;15.50;;;6.68;;
20002;SDS011;10162;41.600;23.806;2023-07-13T12:27:51;7.82;;;6.40;;
20002;SDS011;10162;41.600;23.806;2023-07-13T12:30:29;6.28;;;5.53;;
20002;SDS011;10162;41.600;23.806;2023-07-13T12:33:06;6.85;;;5.80;;
20002;SDS011;10162;41.600;23.806;2023-07-13T12:35:42;10.70;;;6.40;;
20002;SDS011;10162;41.600;23.806;2023-07-13T12:38:12;7.05;;;6.45;;
20002;SDS011;10162;41.600;23.806;2023-07-13T12:40:39;8.48;;;6.32;;
20002;SDS011;10162;41.600;23.806;2023-07-13T12:43:13;8.18;;;5.90;;
20002;SDS011;10162;41.600;23.806;2023-07-13T12:48:24;6.40;;;5.80;;
20002;SDS011;10162;41.600;23.806;2023-07-13T12:50:51;7.68;;;5.60;;
20002;SDS011;10162;41.600;23.806;2023-07-13T12:53:21;6.00;;;5.35;;
20002;SDS011;10162;41.600;23.806;2023-07-13T12:59:01;8.90;;;6.25;;
20002;SDS011;10162;41.600;23.806;2023-07-13T13:01:31;8.48;;;6.70;;
20002;SDS011;10162;41.600;23.806;2023-07-13T13:04:01;6.90;;;6.30;;
20002;SDS011;10162;41.600;23.806;2023-07-13T13:09:43;6.70;;;6.00;;
20002;SDS011;10162;41.600;23.806;2023-07-13T13:12:15;11.60;;;6.43;;
20002;SDS011;10162;41.600;23.806;2023-07-13T13:14:43;7.50;;;6.65;;
20002;SDS011;10162;41.600;23.806;2023-07-13T13:20:16;8.60;;;6.45;;
20002;SDS011;10162;41.600;23.806;2023-07-13T13:22:48;9.18;;;6.82;;
20002;SDS011;10162;41.600;23.806;2023-07-13T13:28:04;8.70;;;5.50;;
20002;SDS011;10162;41.600;23.806;2023-07-13T13:30:30;14.38;;;5.50;;
20002;SDS011;10162;41.600;23.806;2023-07-13T13:32:57;11.57;;;5.18;;
20002;SDS011;10162;41.600;23.806;2023-07-13T13:41:49;7.40;;;5.32;;
20002;SDS011;10162;41.600;23.806;2023-07-13T13:44:16;12.90;;;8.95;;
20002;SDS011;10162;41.600;23.806;2023-07-13T13:50:53;10.13;;;6.22;;
20002;SDS011;10162;41.600;23.806;2023-07-13T13:53:19;7.93;;;4.88;;
20002;SDS011;10162;41.600;23.806;2023-07-13T13:56:09;7.30;;;5.38;;
20002;SDS011;10162;41.600;23.806;2023-07-13T13:58:38;6.00;;;5.40;;
20002;SDS011;10162;41.600;23.806;2023-07-13T14:04:11;10.88;;;5.50;;
20002;SDS011;10162;41.600;23.806;2023-07-13T14:06:56;10.75;;;6.03;;
20002;SDS011;10162;41.600;23.806;2023-07-13T14:09:23;10.80;;;5.60;;
20002;SDS011;10162;41.600;23.806;2023-07-13T14:11:49;8.02;;;5.70;;
20002;SDS011;10162;41.600;23.806;2023-07-13T14:14:19;7.57;;;6.05;;
20002;SDS011;10162;41.600;23.806;2023-07-13T14:20:57;8.35;;;6.28;;
20002;SDS011;10162;41.600;23.806;2023-07-13T14:23:28;9.05;;;5.90;;
20002;SDS011;10162;41.600;23.806;2023-07-13T14:29:54;17.63;;;6.50;;
20002;SDS011;10162;41.600;23.806;2023-07-13T14:36:53;6.82;;;6.18;;
20002;SDS011;10162;41.600;23.806;2023-07-13T14:39:54;8.80;;;5.97;;
20002;SDS011;10162;41.600;23.806;2023-07-13T14:42:19;11.13;;;6.57;;
20002;SDS011;10162;41.600;23.806;2023-07-13T14:44:48;7.97;;;5.53;;
20002;SDS011;10162;41.600;23.806;2023-07-13T14:59:05;12.77;;;5.90;;
20002;SDS011;10162;41.600;23.806;2023-07-13T15:40:35;8.40;;;6.35;;
20002;SDS011;10162;41.600;23.806;2023-07-13T16:12:46;9.68;;;6.45;;
20002;SDS011;10162;41.600;23.806;2023-07-13T16:15:25;13.82;;;5.63;;
20002;SDS011;10162;41.600;23.806;2023-07-13T16:18:01;9.63;;;6.40;;
20002;SDS011;10162;41.600;23.806;2023-07-13T16:20:26;7.05;;;5.88;;
20002;SDS011;10162;41.600;23.806;2023-07-13T16:51:15;5.72;;;5.07;;
20002;SDS011;10162;41.600;23.806;2023-07-13T16:53:41;6.93;;;5.45;;
20002;SDS011;10162;41.600;23.806;2023-07-13T17:00:04;7.55;;;5.00;;
20002;SDS011;10162;41.600;23.806;2023-07-13T17:02:42;9.18;;;5.35;;
20002;SDS011;10162;41.600;23.806;2023-07-13T17:05:11;7.47;;;6.00;;
20002;SDS011;10162;41.600;23.806;2023-07-13T17:11:33;9.00;;;5.20;;
20002;SDS011;10162;41.600;23.806;2023-07-13T17:14:00;9.15;;;5.25;;
20002;SDS011;10162;41.600;23.806;2023-07-13T17:19:40;7.35;;;5.53;;
20002;SDS011;10162;41.600;23.806;2023-07-13T17:22:09;8.55;;;5.45;;
20002;SDS011;10162;41.600;23.806;2023-07-13T17:24:45;9.95;;;5.75;;
20002;SDS011;10162;41.600;23.806;2023-07-13T17:27:32;8.25;;;5.50;;
20002;SDS011;10162;41.600;23.806;2023-07-13T17:29:59;26.35;;;7.30;;
20002;SDS011;10162;41.600;23.806;2023-07-13T17:32:24;9.45;;;5.15;;
20002;SDS011;10162;41.600;23.806;2023-07-13T17:34:52;17.98;;;5.57;;
20002;SDS011;10162;41.600;23.806;2023-07-13T17:37:19;10.55;;;5.60;;
20002;SDS011;10162;41.600;23.806;2023-07-13T17:39:45;6.18;;;4.97;;
20002;SDS011;10162;41.600;23.806;2023-07-13T17:42:12;9.13;;;5.35;;
20002;SDS011;10162;41.600;23.806;2023-07-13T17:44:39;9.25;;;5.20;;
20002;SDS011;10162;41.600;23.806;2023-07-13T17:50:59;10.50;;;5.50;;
20002;SDS011;10162;41.600;23.806;2023-07-13T17:53:26;8.23;;;5.15;;
20002;SDS011;10162;41.600;23.806;2023-07-13T17:59:25;7.93;;;5.45;;
20002;SDS011;10162;41.600;23.806;2023-07-13T18:01:50;6.65;;;5.30;;
20002;SDS011;10162;41.600;23.806;2023-07-13T18:04:17;7.40;;;5.57;;
20002;SDS011;10162;41.600;23.806;2023-07-13T18:06:55;10.18;;;5.40;;
20002;SDS011;10162;41.600;23.806;2023-07-13T18:09:22;7.15;;;6.00;;
20002;SDS011;10162;41.600;23.806;2023-07-13T18:11:49;10.65;;;5.55;;
20002;SDS011;10162;41.600;23.806;2023-07-13T18:14:16;11.00;;;6.32;;
20002;SDS011;10162;41.600;23.806;2023-07-13T18:19:35;9.15;;;5.55;;
20002;SDS011;10162;41.600;23.806;2023-07-13T18:22:16;6.70;;;5.38;;
20002;SDS011;10162;41.600;23.806;2023-07-13T18:24:44;6.40;;;5.68;;
20002;SDS011;10162;41.600;23.806;2023-07-13T18:27:11;7.88;;;5.75;;
20002;SDS011;10162;41.600;23.806;2023-07-13T18:29:37;11.23;;;6.30;;
20002;SDS011;10162;41.600;23.806;2023-07-13T18:32:03;9.23;;;5.93;;
20002;SDS011;10162;41.600;23.806;2023-07-13T18:34:35;9.02;;;5.95;;
20002;SDS011;10162;41.600;23.806;2023-07-13T18:37:09;8.93;;;5.75;;
20002;SDS011;10162;41.600;23.806;2023-07-13T18:39:44;8.63;;;6.57;;
20002;SDS011;10162;41.600;23.806;2023-07-13T18:42:11;8.73;;;6.55;;
20002;SDS011;10162;41.600;23.806;2023-07-13T18:44:37;8.10;;;6.22;;
20002;SDS011;10162;41.600;23.806;2023-07-13T18:47:04;10.00;;;6.78;;
20002;SDS011;10162;41.600;23.806;2023-07-13T18:49:31;10.38;;;6.20;;
20002;SDS011;10162;41.600;23.806;2023-07-13T18:51:57;8.52;;;6.53;;
20002;SDS011;10162;41.600;23.806;2023-07-13T18:54:24;8.38;;;7.07;;
20002;SDS011;10162;41.600;23.806;2023-07-13T18:56:57;8.13;;;6.53;;
20002;SDS011;10162;41.600;23.806;2023-07-13T18:59:25;7.65;;;5.55;;
20002;SDS011;10162;41.600;23.806;2023-07-13T19:01:51;7.35;;;6.10;;
20002;SDS011;10162;41.600;23.806;2023-07-13T19:09:23;7.35;;;6.30;;
20002;SDS011;10162;41.600;23.806;2023-07-13T19:11:50;7.15;;;5.88;;
20002;SDS011;10162;41.600;23.806;2023-07-13T19:14:19;6.97;;;5.88;;
20002;SDS011;10162;41.600;23.806;2023-07-13T19:19:24;7.30;;;5.82;;
20002;SDS011;10162;41.600;23.806;2023-07-13T19:21:50;8.52;;;6.43;;
20002;SDS011;10162;41.600;23.806;2023-07-13T19:24:20;10.15;;;6.07;;
20002;SDS011;10162;41.600;23.806;2023-07-13T19:27:00;8.77;;;6.30;;
20002;SDS011;10162;41.600;23.806;2023-07-13T19:29:27;7.57;;;5.93;;
20002;SDS011;10162;41.600;23.806;2023-07-13T19:34:25;8.05;;;6.03;;
20002;SDS011;10162;41.600;23.806;2023-07-13T19:39:51;6.90;;;6.05;;
20002;SDS011;10162;41.600;23.806;2023-07-13T19:45:13;7.78;;;6.85;;
20002;SDS011;10162;41.600;23.806;2023-07-13T19:47:51;14.98;;;6.68;;
20002;SDS011;10162;41.600;23.806;2023-07-13T19:50:17;8.68;;;7.07;;
20002;SDS011;10162;41.600;23.806;2023-07-13T19:52:46;7.28;;;6.50;;
20002;SDS011;10162;41.600;23.806;2023-07-13T19:55:17;10.75;;;6.93;;
20002;SDS011;10162;41.600;23.806;2023-07-13T19:57:46;10.82;;;7.45;;
20002;SDS011;10162;41.600;23.806;2023-07-13T20:02:49;7.20;;;6.18;;
20002;SDS011;10162;41.600;23.806;2023-07-13T20:05:16;10.70;;;7.22;;
20002;SDS011;10162;41.600;23.806;2023-07-13T20:07:46;10.25;;;6.90;;
20002;SDS011;10162;41.600;23.806;2023-07-13T20:10:21;11.48;;;7.22;;
20002;SDS011;10162;41.600;23.806;2023-07-13T20:12:48;7.15;;;6.45;;
20002;SDS011;10162;41.600;23.806;2023-07-13T20:15:17;12.85;;;7.05;;
20002;SDS011;10162;41.600;23.806;2023-07-13T20:20:40;10.40;;;6.82;;
20002;SDS011;10162;41.600;23.806;2023-07-13T20:23:16;9.73;;;7.32;;
20002;SDS011;10162;41.600;23.806;2023-07-13T20:25:52;9.65;;;6.70;;
20002;SDS011;10162;41.600;23.806;2023-07-13T20:28:18;11.77;;;6.60;;
20002;SDS011;10162;41.600;23.806;2023-07-13T20:30:47;9.68;;;6.90;;
20002;SDS011;10162;41.600;23.806;2023-07-13T20:33:21;8.88;;;6.13;;
20002;SDS011;10162;41.600;23.806;2023-07-13T20:38:34;9.32;;;6.35;;
20002;SDS011;10162;41.600;23.806;2023-07-13T20:40:59;7.80;;;6.40;;
20002;SDS011;10162;41.600;23.806;2023-07-13T20:43:27;7.07;;;6.38;;
20002;SDS011;10162;41.600;23.806;2023-07-13T20:46:12;7.38;;;6.30;;
